createdAt,value
2023-03-18T00:01:11.525Z,15.13
2023-03-18T00:03:39.746Z,12.73
2023-03-18T00:06:18.667Z,10.85
2023-03-18T00:08:48.080Z,13.50
2023-03-18T00:11:18.749Z,15.80
2023-03-18T00:13:46.783Z,14.57
2023-03-18T00:16:15.824Z,13.35
2023-03-18T00:18:43.905Z,14.88
2023-03-18T00:21:12.277Z,12.52
2023-03-18T00:23:40.579Z,11.27
2023-03-18T00:26:09.090Z,12.57
2023-03-18T00:28:39.563Z,14.50
2023-03-18T00:31:12.927Z,13.48
2023-03-18T00:33:45.977Z,14.10
2023-03-18T00:36:16.547Z,13.38
2023-03-18T00:38:51.124Z,13.75
2023-03-18T00:41:19.237Z,15.27
2023-03-18T00:43:54.940Z,11.02
2023-03-18T00:46:32.531Z,13.65
2023-03-18T00:49:05.354Z,13.82
2023-03-18T00:54:07.388Z,13.40
2023-03-18T00:56:40.200Z,13.65
2023-03-18T00:59:08.830Z,16.35
2023-03-18T01:01:37.831Z,12.27
2023-03-18T01:04:06.568Z,15.65
2023-03-18T01:06:37.532Z,15.38
2023-03-18T01:09:09.946Z,15.43
2023-03-18T01:11:38.009Z,14.88
2023-03-18T01:14:05.721Z,13.50
2023-03-18T01:16:33.446Z,15.55
2023-03-18T01:19:01.673Z,18.02
2023-03-18T01:21:29.282Z,13.40
2023-03-18T01:24:04.414Z,15.13
2023-03-18T01:26:33.119Z,14.32
2023-03-18T01:29:02.770Z,14.38
2023-03-18T01:31:32.078Z,16.40
2023-03-18T01:34:05.724Z,15.93
2023-03-18T01:36:44.440Z,16.05
2023-03-18T01:39:12.109Z,14.95
2023-03-18T01:41:40.272Z,16.20
2023-03-18T01:44:23.456Z,17.35
2023-03-18T01:46:54.306Z,17.20
2023-03-18T01:49:38.529Z,18.30
2023-03-18T01:52:21.981Z,16.80
2023-03-18T01:55:02.995Z,19.08
2023-03-18T01:57:34.031Z,18.47
2023-03-18T02:00:06.031Z,21.10
2023-03-18T02:02:44.448Z,15.80
2023-03-18T02:05:20.040Z,19.90
2023-03-18T02:07:48.043Z,19.00
2023-03-18T02:10:31.236Z,22.38
2023-03-18T02:13:06.713Z,20.65
2023-03-18T02:16:09.023Z,18.38
2023-03-18T02:18:47.225Z,16.02
2023-03-18T02:21:52.041Z,19.38
2023-03-18T02:24:55.672Z,18.80
2023-03-18T02:27:31.854Z,21.52
2023-03-18T02:30:10.369Z,23.25
2023-03-18T02:32:44.606Z,20.00
2023-03-18T02:35:12.796Z,19.83
2023-03-18T02:37:42.051Z,17.45
2023-03-18T02:40:29.137Z,19.58
2023-03-18T02:42:57.382Z,18.05
2023-03-18T02:45:59.706Z,19.40
2023-03-18T02:48:38.898Z,21.83
2023-03-18T02:51:09.017Z,21.77
2023-03-18T02:53:38.555Z,19.85
2023-03-18T02:56:07.117Z,20.60
2023-03-18T02:58:37.284Z,21.20
2023-03-18T03:01:08.194Z,19.27
2023-03-18T03:03:37.654Z,21.90
2023-03-18T03:06:05.899Z,19.80
2023-03-18T03:08:33.477Z,21.63
2023-03-18T03:11:01.766Z,21.38
2023-03-18T03:13:31.918Z,24.10
2023-03-18T03:16:00.382Z,23.95
2023-03-18T03:18:30.048Z,21.73
2023-03-18T03:20:58.844Z,21.20
2023-03-18T03:23:27.480Z,22.58
2023-03-18T03:25:55.223Z,25.98
2023-03-18T03:28:23.280Z,23.30
2023-03-18T03:30:54.008Z,22.95
2023-03-18T03:33:22.927Z,22.75
2023-03-18T03:35:51.268Z,24.60
2023-03-18T03:38:19.234Z,23.30
2023-03-18T03:40:47.885Z,24.83
2023-03-18T03:43:16.235Z,25.60
2023-03-18T03:45:45.084Z,26.50
2023-03-18T03:48:12.949Z,25.60
2023-03-18T03:50:41.144Z,22.65
2023-03-18T03:53:10.399Z,26.88
2023-03-18T03:55:38.295Z,24.05
2023-03-18T03:58:07.678Z,22.67
2023-03-18T04:00:35.719Z,24.92
2023-03-18T04:03:04.399Z,26.02
2023-03-18T04:05:32.024Z,26.15
2023-03-18T04:08:01.210Z,26.75
2023-03-18T04:10:36.853Z,30.13
2023-03-18T04:13:06.446Z,24.70
2023-03-18T04:15:35.208Z,26.27
2023-03-18T04:18:09.220Z,26.98
2023-03-18T04:20:39.233Z,27.27
2023-03-18T04:23:15.736Z,25.38
2023-03-18T04:25:44.502Z,27.88
2023-03-18T04:28:12.337Z,28.30
2023-03-18T04:30:40.500Z,29.20
2023-03-18T04:33:14.365Z,24.33
2023-03-18T04:35:43.664Z,23.77
2023-03-18T04:38:13.634Z,25.52
2023-03-18T04:40:42.897Z,24.83
2023-03-18T04:43:11.174Z,24.88
2023-03-18T04:45:39.990Z,30.73
2023-03-18T04:48:07.798Z,26.88
2023-03-18T04:50:40.386Z,28.13
2023-03-18T04:53:11.275Z,30.65
2023-03-18T04:55:40.663Z,28.10
2023-03-18T04:58:10.587Z,27.85
2023-03-18T05:00:43.988Z,28.98
2023-03-18T05:03:30.762Z,27.20
2023-03-18T05:05:58.919Z,31.23
2023-03-18T05:08:35.877Z,30.33
2023-03-18T05:11:03.826Z,29.30
2023-03-18T05:13:34.095Z,29.00
2023-03-18T05:16:02.891Z,30.05
2023-03-18T05:18:30.489Z,25.30
2023-03-18T05:21:02.768Z,29.42
2023-03-18T05:23:31.046Z,28.10
2023-03-18T05:25:59.734Z,31.60
2023-03-18T05:28:34.068Z,29.88
2023-03-18T05:31:24.788Z,27.58
2023-03-18T05:33:53.241Z,28.38
2023-03-18T05:36:22.336Z,29.63
2023-03-18T05:38:57.733Z,29.00
2023-03-18T05:41:26.048Z,23.90
2023-03-18T05:43:54.466Z,26.02
2023-03-18T05:46:22.866Z,30.17
2023-03-18T05:48:57.961Z,29.25
2023-03-18T05:51:31.884Z,25.42
2023-03-18T05:54:00.646Z,32.10
2023-03-18T05:56:33.205Z,28.38
2023-03-18T05:59:06.013Z,27.70
2023-03-18T06:01:42.092Z,27.65
2023-03-18T06:04:10.339Z,27.63
2023-03-18T06:06:40.652Z,29.52
2023-03-18T06:09:12.252Z,25.95
2023-03-18T06:11:42.355Z,27.73
2023-03-18T06:14:11.279Z,25.90
2023-03-18T06:16:39.245Z,26.48
2023-03-18T06:19:07.828Z,25.75
2023-03-18T06:21:36.220Z,28.58
2023-03-18T06:24:05.279Z,27.23
2023-03-18T06:26:35.287Z,28.63
2023-03-18T06:29:05.346Z,25.92
2023-03-18T06:31:34.890Z,23.38
2023-03-18T06:34:04.960Z,25.02
2023-03-18T06:36:36.022Z,23.30
2023-03-18T06:39:07.007Z,25.70
2023-03-18T06:41:41.326Z,22.92
2023-03-18T06:44:31.493Z,22.40
2023-03-18T06:47:06.835Z,24.02
2023-03-18T06:49:38.517Z,23.13
2023-03-18T06:52:12.845Z,22.05
2023-03-18T06:54:42.104Z,22.77
2023-03-18T06:57:09.925Z,21.25
2023-03-18T06:59:39.336Z,18.20
2023-03-18T07:02:08.600Z,22.67
2023-03-18T07:04:36.314Z,22.15
2023-03-18T07:07:05.935Z,21.42
2023-03-18T07:09:33.767Z,21.67
2023-03-18T07:12:01.664Z,17.15
2023-03-18T07:14:29.542Z,18.02
2023-03-18T07:16:57.398Z,19.48
2023-03-18T07:19:25.241Z,19.05
2023-03-18T07:21:52.944Z,19.40
2023-03-18T07:24:21.477Z,20.77
2023-03-18T07:26:50.366Z,18.80
2023-03-18T07:29:18.830Z,18.42
2023-03-18T07:31:47.044Z,18.00
2023-03-18T07:34:15.133Z,20.85
2023-03-18T07:36:43.082Z,19.58
2023-03-18T07:39:11.336Z,20.63
2023-03-18T07:41:39.014Z,22.77
2023-03-18T07:44:07.812Z,18.80
2023-03-18T07:46:35.584Z,19.73
2023-03-18T07:49:03.666Z,17.85
2023-03-18T07:51:33.459Z,21.00
2023-03-18T07:54:00.975Z,19.80
2023-03-18T07:56:28.625Z,17.95
2023-03-18T07:58:56.184Z,16.92
2023-03-18T08:01:24.034Z,18.67
2023-03-18T08:03:51.822Z,23.08
2023-03-18T08:06:20.618Z,19.73
2023-03-18T08:08:49.308Z,19.45
2023-03-18T08:11:17.258Z,18.50
2023-03-18T08:13:44.894Z,20.73
2023-03-18T08:16:12.477Z,19.23
2023-03-18T08:18:40.318Z,19.08
2023-03-18T08:21:09.528Z,18.73
2023-03-18T08:23:37.890Z,17.08
2023-03-18T08:26:05.650Z,18.30
2023-03-18T08:28:33.380Z,16.17
2023-03-18T08:31:01.275Z,18.58
2023-03-18T08:33:29.192Z,16.67
2023-03-18T08:35:58.002Z,19.10
2023-03-18T08:38:25.920Z,17.95
2023-03-18T08:40:53.492Z,16.75
2023-03-18T08:43:22.326Z,27.75
2023-03-18T08:45:54.641Z,18.98
2023-03-18T08:48:24.185Z,17.02
2023-03-18T08:50:52.662Z,15.20
2023-03-18T08:53:20.473Z,16.20
2023-03-18T08:55:48.486Z,15.63
2023-03-18T08:58:16.229Z,16.15
2023-03-18T09:00:45.008Z,14.43
2023-03-18T09:03:13.728Z,13.07
2023-03-18T09:05:41.920Z,11.95
2023-03-18T09:08:09.567Z,11.80
2023-03-18T09:10:37.219Z,12.45
2023-03-18T09:13:05.769Z,13.85
2023-03-18T09:15:34.118Z,10.52
2023-03-18T09:18:11.433Z,12.07
2023-03-18T09:20:41.317Z,12.40
2023-03-18T09:23:11.495Z,12.02
2023-03-18T09:25:42.773Z,12.15
2023-03-18T09:28:10.507Z,11.50
2023-03-18T09:30:39.180Z,11.10
2023-03-18T09:33:09.375Z,12.40
2023-03-18T09:35:38.112Z,11.68
2023-03-18T09:38:07.333Z,12.07
2023-03-18T09:40:44.318Z,10.07
2023-03-18T09:44:13.685Z,10.88
2023-03-18T09:47:18.605Z,10.90
2023-03-18T09:50:41.632Z,10.57
2023-03-18T09:53:22.641Z,10.77
2023-03-18T09:56:00.771Z,12.45
2023-03-18T09:59:00.417Z,12.50
2023-03-18T10:01:29.142Z,12.05
2023-03-18T10:04:22.353Z,9.98
2023-03-18T10:07:02.556Z,11.60
2023-03-18T10:10:10.914Z,10.23
2023-03-18T10:13:33.645Z,9.40
2023-03-18T10:16:08.977Z,8.63
2023-03-18T10:18:43.216Z,10.18
2023-03-18T10:21:48.119Z,11.30
2023-03-18T10:25:09.909Z,9.23
2023-03-18T10:28:08.681Z,11.45
2023-03-18T10:31:06.274Z,9.75
2023-03-18T10:33:58.474Z,11.82
2023-03-18T10:36:55.477Z,9.85
2023-03-18T10:39:26.853Z,10.23
2023-03-18T10:41:58.421Z,10.77
2023-03-18T10:44:31.044Z,10.25
2023-03-18T10:47:13.366Z,9.15
2023-03-18T10:49:47.352Z,7.25
2023-03-18T10:52:56.924Z,9.80
2023-03-18T10:55:35.399Z,10.38
2023-03-18T10:58:18.498Z,8.80
2023-03-18T11:00:46.585Z,9.45
2023-03-18T11:03:27.308Z,7.18
2023-03-18T11:05:59.800Z,8.10
2023-03-18T11:08:36.874Z,6.65
2023-03-18T11:11:34.847Z,8.70
2023-03-18T11:14:05.751Z,7.05
2023-03-18T11:16:56.532Z,10.52
2023-03-18T11:19:49.383Z,10.47
2023-03-18T11:22:24.740Z,8.57
2023-03-18T11:25:20.469Z,7.93
2023-03-18T11:28:17.739Z,7.40
2023-03-18T11:30:56.120Z,5.38
2023-03-18T11:33:29.801Z,6.00
2023-03-18T11:36:06.985Z,4.68
2023-03-18T11:38:37.159Z,5.70
2023-03-18T11:41:25.115Z,5.90
2023-03-18T11:44:08.258Z,6.38
2023-03-18T11:46:50.110Z,6.32
2023-03-18T11:49:27.015Z,7.63
2023-03-18T11:52:14.127Z,7.07
2023-03-18T11:55:01.504Z,7.25
2023-03-18T11:58:00.112Z,6.32
2023-03-18T12:00:50.432Z,5.25
2023-03-18T12:04:35.940Z,7.43
2023-03-18T12:07:30.213Z,7.57
2023-03-18T12:10:38.040Z,7.93
2023-03-18T12:13:36.282Z,7.63
2023-03-18T12:16:33.238Z,6.15
2023-03-18T12:19:27.452Z,8.77
2023-03-18T12:22:06.937Z,6.78
2023-03-18T12:25:22.574Z,6.45
2023-03-18T12:28:32.854Z,5.00
2023-03-18T12:31:42.168Z,7.72
2023-03-18T12:35:01.085Z,7.07
2023-03-18T12:38:22.709Z,8.00
2023-03-18T12:41:25.614Z,7.13
2023-03-18T12:44:54.544Z,7.80
2023-03-18T12:47:48.102Z,6.43
2023-03-18T12:50:23.428Z,7.55
2023-03-18T12:53:16.757Z,7.30
2023-03-18T12:55:50.272Z,4.85
2023-03-18T12:58:46.144Z,5.60
2023-03-18T13:01:31.415Z,7.90
2023-03-18T13:04:07.304Z,6.78
2023-03-18T13:06:47.486Z,5.97
2023-03-18T13:09:44.606Z,7.63
2023-03-18T13:12:30.461Z,7.95
2023-03-18T13:15:35.189Z,10.75
2023-03-18T13:18:31.751Z,7.22
2023-03-18T13:21:00.933Z,6.07
2023-03-18T13:24:02.206Z,6.97
2023-03-18T13:27:09.477Z,7.88
2023-03-18T13:30:02.081Z,6.07
2023-03-18T13:32:58.775Z,6.85
2023-03-18T13:35:59.649Z,5.78
2023-03-18T13:38:32.935Z,6.50
2023-03-18T13:41:25.601Z,5.88
2023-03-18T13:43:58.501Z,5.80
2023-03-18T13:46:33.104Z,7.65
2023-03-18T13:49:03.978Z,6.20
2023-03-18T13:51:32.008Z,7.72
2023-03-18T13:54:12.555Z,7.57
2023-03-18T13:56:40.268Z,9.02
2023-03-18T13:59:33.756Z,7.32
2023-03-18T14:02:47.681Z,8.15
2023-03-18T14:05:42.558Z,7.43
2023-03-18T14:08:39.811Z,8.45
2023-03-18T14:11:28.672Z,7.55
2023-03-18T14:14:05.064Z,6.38
2023-03-18T14:16:37.647Z,7.03
2023-03-18T14:19:17.444Z,5.85
2023-03-18T14:22:07.391Z,4.40
2023-03-18T14:24:35.563Z,5.13
2023-03-18T14:27:04.388Z,6.78
2023-03-18T14:29:39.193Z,5.13
2023-03-18T14:32:59.412Z,6.60
2023-03-18T14:35:33.428Z,5.22
2023-03-18T14:38:39.059Z,4.00
2023-03-18T14:41:42.392Z,3.55
2023-03-18T14:44:34.452Z,3.40
2023-03-18T14:47:22.704Z,3.92
2023-03-18T14:50:22.127Z,3.75
2023-03-18T14:53:03.672Z,5.00
2023-03-18T14:55:35.624Z,7.15
2023-03-18T14:58:04.546Z,5.15
2023-03-18T15:00:36.453Z,5.45
2023-03-18T15:03:12.028Z,5.50
2023-03-18T15:05:43.401Z,6.25
2023-03-18T15:08:20.026Z,5.20
2023-03-18T15:10:51.646Z,5.28
2023-03-18T15:13:23.804Z,5.85
2023-03-18T15:15:56.441Z,5.53
2023-03-18T15:18:34.932Z,5.22
2023-03-18T15:21:09.116Z,6.20
2023-03-18T15:23:45.588Z,6.10
2023-03-18T15:26:27.063Z,6.07
2023-03-18T15:28:58.424Z,6.03
2023-03-18T15:31:41.241Z,5.72
2023-03-18T15:34:27.370Z,5.68
2023-03-18T15:36:59.614Z,6.18
2023-03-18T15:39:39.937Z,4.78
2023-03-18T15:42:21.570Z,5.72
2023-03-18T15:45:00.684Z,4.68
2023-03-18T15:47:32.388Z,5.70
2023-03-18T15:50:19.624Z,4.63
2023-03-18T15:53:17.937Z,6.68
2023-03-18T15:55:55.376Z,4.10
2023-03-18T15:58:26.587Z,5.32
2023-03-18T16:00:56.872Z,5.22
2023-03-18T16:03:31.265Z,5.15
2023-03-18T16:05:58.937Z,5.57
2023-03-18T16:08:26.866Z,5.50
2023-03-18T16:11:01.867Z,4.63
2023-03-18T16:13:34.676Z,6.55
2023-03-18T16:16:03.873Z,6.00
2023-03-18T16:18:32.645Z,5.10
2023-03-18T16:21:00.543Z,5.28
2023-03-18T16:23:28.514Z,4.32
2023-03-18T16:25:57.015Z,5.18
2023-03-18T16:28:28.386Z,6.07
2023-03-18T16:30:56.290Z,4.72
2023-03-18T16:33:25.124Z,6.15
2023-03-18T16:36:01.609Z,4.68
2023-03-18T16:38:31.048Z,6.75
2023-03-18T16:40:58.960Z,5.63
2023-03-18T16:43:30.432Z,4.82
2023-03-18T16:46:04.095Z,4.40
2023-03-18T16:48:32.212Z,5.18
2023-03-18T16:51:02.413Z,5.60
2023-03-18T16:53:31.754Z,5.45
2023-03-18T16:56:16.352Z,4.05
2023-03-18T16:58:44.748Z,4.25
2023-03-18T17:01:17.085Z,5.70
2023-03-18T17:03:45.682Z,4.05
2023-03-18T17:06:13.636Z,4.00
2023-03-18T17:08:41.120Z,5.10
2023-03-18T17:11:18.514Z,5.65
2023-03-18T17:13:47.177Z,4.47
2023-03-18T17:16:20.046Z,5.93
2023-03-18T17:18:48.131Z,4.45
2023-03-18T17:21:17.020Z,4.85
2023-03-18T17:23:45.615Z,5.70
2023-03-18T17:26:16.743Z,5.30
2023-03-18T17:28:49.205Z,4.70
2023-03-18T17:31:17.380Z,3.97
2023-03-18T17:33:44.983Z,5.55
2023-03-18T17:36:12.605Z,5.22
2023-03-18T17:38:40.330Z,4.28
2023-03-18T17:41:21.321Z,6.13
2023-03-18T17:43:49.144Z,6.00
2023-03-18T17:46:16.780Z,3.47
2023-03-18T17:48:44.688Z,7.63
2023-03-18T17:51:20.892Z,5.15
2023-03-18T17:53:55.319Z,5.00
2023-03-18T17:56:22.995Z,4.32
2023-03-18T17:58:51.901Z,4.28
2023-03-18T18:01:26.360Z,5.78
2023-03-18T18:03:58.933Z,2.85
2023-03-18T18:06:29.376Z,5.57
2023-03-18T18:09:00.216Z,5.50
2023-03-18T18:11:32.500Z,3.97
2023-03-18T18:14:18.490Z,5.40
2023-03-18T18:16:48.539Z,5.72
2023-03-18T18:19:16.524Z,5.78
2023-03-18T18:21:46.182Z,5.20
2023-03-18T18:24:24.212Z,8.25
2023-03-18T18:26:53.370Z,4.25
2023-03-18T18:29:24.529Z,6.97
2023-03-18T18:31:52.730Z,7.28
2023-03-18T18:34:21.444Z,7.97
2023-03-18T18:36:50.745Z,5.47
2023-03-18T18:39:19.651Z,9.07
2023-03-18T18:41:47.286Z,7.68
2023-03-18T18:44:14.862Z,6.40
2023-03-18T18:46:42.596Z,6.32
2023-03-18T18:49:22.905Z,4.95
2023-03-18T18:51:55.732Z,7.43
2023-03-18T18:54:24.641Z,4.93
2023-03-18T18:56:53.071Z,7.57
2023-03-18T18:59:38.567Z,6.47
2023-03-18T19:02:32.617Z,4.75
2023-03-18T19:05:02.353Z,6.68
2023-03-18T19:07:33.592Z,6.70
2023-03-18T19:10:01.672Z,7.57
2023-03-18T19:12:29.176Z,6.40
2023-03-18T19:14:56.844Z,7.25
2023-03-18T19:17:25.573Z,6.10
2023-03-18T19:19:53.370Z,8.82
2023-03-18T19:22:22.190Z,6.13
2023-03-18T19:24:50.116Z,7.57
2023-03-18T19:27:30.958Z,7.20
2023-03-18T19:30:01.619Z,7.72
2023-03-18T19:32:29.241Z,7.07
2023-03-18T19:34:57.000Z,6.97
2023-03-18T19:37:32.347Z,7.68
2023-03-18T19:40:18.751Z,8.70
2023-03-18T19:42:46.569Z,5.95
2023-03-18T19:45:14.389Z,7.68
2023-03-18T19:47:42.653Z,8.65
2023-03-18T19:50:19.491Z,13.90
2023-03-18T19:52:47.666Z,16.27
2023-03-18T19:55:16.520Z,9.68
2023-03-18T19:57:48.140Z,6.78
2023-03-18T20:02:50.914Z,5.57
2023-03-18T20:05:22.921Z,7.03
2023-03-18T20:07:50.973Z,5.28
2023-03-18T20:10:20.743Z,6.05
2023-03-18T20:12:50.926Z,6.15
2023-03-18T20:15:23.117Z,4.55
2023-03-18T20:17:52.336Z,3.65
2023-03-18T20:20:23.853Z,3.63
2023-03-18T20:22:55.606Z,3.45
2023-03-18T20:25:37.248Z,4.03
2023-03-18T20:28:07.477Z,4.60
2023-03-18T20:30:38.668Z,4.03
2023-03-18T20:33:07.555Z,2.00
2023-03-18T20:35:44.932Z,3.65
2023-03-18T20:38:26.957Z,4.53
2023-03-18T20:40:54.701Z,4.60
2023-03-18T20:43:27.869Z,2.58
2023-03-18T20:45:58.159Z,8.40
2023-03-18T20:48:26.259Z,8.82
2023-03-18T20:50:55.970Z,4.38
2023-03-18T20:53:28.221Z,3.90
2023-03-18T20:55:56.465Z,3.63
2023-03-18T20:58:27.889Z,2.83
2023-03-18T21:00:55.794Z,2.72
2023-03-18T21:03:25.644Z,3.65
2023-03-18T21:05:56.668Z,2.65
2023-03-18T21:08:26.711Z,3.28
2023-03-18T21:10:55.401Z,3.20
2023-03-18T21:13:33.754Z,5.30
2023-03-18T21:16:03.681Z,3.53
2023-03-18T21:18:31.530Z,4.57
2023-03-18T21:21:01.041Z,4.85
2023-03-18T21:23:34.559Z,5.43
2023-03-18T21:26:03.539Z,6.35
2023-03-18T21:28:31.169Z,4.47
2023-03-18T21:30:59.204Z,5.30
2023-03-18T21:33:34.735Z,3.63
2023-03-18T21:36:02.869Z,3.22
2023-03-18T21:38:34.959Z,3.72
2023-03-18T21:41:03.172Z,4.43
2023-03-18T21:43:40.418Z,4.65
2023-03-18T21:46:14.544Z,3.42
2023-03-18T21:48:42.286Z,3.30
2023-03-18T21:51:39.102Z,3.88
2023-03-18T21:54:26.083Z,3.95
2023-03-18T21:56:53.718Z,2.92
2023-03-18T21:59:21.364Z,2.92
2023-03-18T22:01:49.046Z,2.85
2023-03-18T22:04:16.640Z,3.58
2023-03-18T22:06:44.146Z,2.38
2023-03-18T22:09:11.752Z,4.75
2023-03-18T22:11:39.292Z,4.28
2023-03-18T22:14:07.108Z,4.28
2023-03-18T22:16:34.673Z,2.15
2023-03-18T22:19:02.120Z,2.90
2023-03-18T22:21:29.767Z,3.08
2023-03-18T22:23:59.904Z,2.60
2023-03-18T22:26:27.354Z,5.13
2023-03-18T22:28:55.313Z,3.38
2023-03-18T22:31:27.072Z,2.83
2023-03-18T22:33:54.912Z,3.42
2023-03-18T22:36:23.774Z,4.82
2023-03-18T22:38:51.281Z,4.80
2023-03-18T22:41:24.175Z,3.75
2023-03-18T22:43:52.077Z,4.70
2023-03-18T22:46:19.676Z,4.28
2023-03-18T22:48:47.433Z,3.05
2023-03-18T22:51:26.119Z,3.47
2023-03-18T22:53:54.365Z,3.35
2023-03-18T22:56:22.949Z,4.80
2023-03-18T22:58:51.481Z,4.30
2023-03-18T23:01:26.554Z,3.15
2023-03-18T23:03:54.312Z,3.72
2023-03-18T23:06:26.996Z,4.25
2023-03-18T23:08:54.539Z,2.88
2023-03-18T23:11:22.050Z,3.83
2023-03-18T23:13:50.766Z,3.72
2023-03-18T23:16:22.275Z,5.90
2023-03-18T23:21:24.784Z,2.67
2023-03-18T23:23:52.903Z,4.03
2023-03-18T23:26:20.992Z,2.92
2023-03-18T23:28:49.227Z,3.25
2023-03-18T23:31:17.447Z,4.60
2023-03-18T23:33:45.878Z,4.32
2023-03-18T23:36:13.676Z,4.93
2023-03-18T23:38:41.756Z,6.90
2023-03-18T23:41:09.359Z,4.57
2023-03-18T23:43:37.257Z,6.30
2023-03-18T23:46:05.034Z,5.72
2023-03-18T23:48:32.861Z,5.45
2023-03-18T23:51:00.772Z,4.07
2023-03-18T23:53:28.323Z,4.88
2023-03-18T23:55:55.963Z,5.65
2023-03-18T23:58:23.466Z,4.53
